createdAt,value
2018-04-08T00:00:31.132Z,77.53
2018-04-08T00:01:31.121Z,77.06
2018-04-08T00:02:31.117Z,76.86
2018-04-08T00:03:31.110Z,76.86
2018-04-08T00:04:31.099Z,76.20
2018-04-08T00:05:31.082Z,77.53
2018-04-08T00:06:31.080Z,77.82
2018-04-08T00:07:31.065Z,78.10
2018-04-08T00:08:31.059Z,78.01
2018-04-08T00:09:31.046Z,78.49
2018-04-08T00:10:31.041Z,78.58
2018-04-08T00:11:31.025Z,78.20
2018-04-08T00:12:31.015Z,77.82
2018-04-08T00:13:31.007Z,77.91
2018-04-08T00:14:31.000Z,77.25
2018-04-08T00:15:30.986Z,77.44
2018-04-08T00:16:30.975Z,77.53
2018-04-08T00:17:30.965Z,77.82
2018-04-08T00:18:30.957Z,78.01
2018-04-08T00:19:30.952Z,78.10
2018-04-08T00:20:30.936Z,78.67
2018-04-08T00:21:30.935Z,78.49
2018-04-08T00:22:30.918Z,78.77
2018-04-08T00:23:30.905Z,79.21
2018-04-08T00:24:30.903Z,79.40
2018-04-08T00:25:30.891Z,79.78
2018-04-08T00:26:30.879Z,81.30
2018-04-08T00:27:30.870Z,81.78
2018-04-08T00:28:30.857Z,82.07
2018-04-08T00:29:30.856Z,82.45
2018-04-08T00:30:30.842Z,82.17
2018-04-08T00:31:30.833Z,81.68
2018-04-08T00:32:30.816Z,81.68
2018-04-08T00:33:30.811Z,81.68
2018-04-08T00:34:30.797Z,82.26
2018-04-08T00:35:30.788Z,82.07
2018-04-08T00:36:30.780Z,81.78
2018-04-08T00:37:30.769Z,82.07
2018-04-08T00:38:30.765Z,81.78
2018-04-08T00:39:30.757Z,82.26
2018-04-08T00:40:30.742Z,82.54
2018-04-08T00:41:30.733Z,82.17
2018-04-08T00:42:30.718Z,82.26
2018-04-08T00:43:30.715Z,82.54
2018-04-08T00:44:30.697Z,82.83
2018-04-08T00:45:30.691Z,83.02
2018-04-08T00:46:30.678Z,82.92
2018-04-08T00:47:30.668Z,83.12
2018-04-08T00:48:30.660Z,82.92
2018-04-08T00:49:30.647Z,82.64
2018-04-08T00:50:30.642Z,82.17
2018-04-08T00:51:30.629Z,80.83
2018-04-08T00:52:30.622Z,80.92
2018-04-08T00:53:30.604Z,81.12
2018-04-08T00:54:30.607Z,81.59
2018-04-08T00:55:30.591Z,81.02
2018-04-08T00:56:30.579Z,80.64
2018-04-08T00:57:30.567Z,81.74
2018-04-08T00:58:30.555Z,82.26
2018-04-08T00:59:30.544Z,82.07
2018-04-08T01:00:30.532Z,82.89
2018-04-08T01:01:30.527Z,83.36
2018-04-08T01:02:30.514Z,83.74
2018-04-08T01:03:30.503Z,83.55
2018-04-08T01:04:30.490Z,83.55
2018-04-08T01:05:30.482Z,83.74
2018-04-08T01:06:30.476Z,83.07
2018-04-08T01:07:30.461Z,83.07
2018-04-08T01:08:30.458Z,83.36
2018-04-08T01:09:30.453Z,84.03
2018-04-08T01:10:30.429Z,84.31
2018-04-08T01:11:30.425Z,84.22
2018-04-08T01:12:30.414Z,84.98
2018-04-08T01:13:30.397Z,84.98
2018-04-08T01:14:30.390Z,84.88
2018-04-08T01:15:30.384Z,84.88
2018-04-08T01:16:30.367Z,85.64
2018-04-08T01:17:30.358Z,85.55
2018-04-08T01:18:30.346Z,85.36
2018-04-08T01:19:30.343Z,85.64
2018-04-08T01:20:30.326Z,86.22
2018-04-08T01:21:30.317Z,86.32
2018-04-08T01:22:30.313Z,85.17
2018-04-08T01:23:30.294Z,85.74
2018-04-08T01:24:30.284Z,85.74
2018-04-08T01:25:30.279Z,85.36
2018-04-08T01:26:30.261Z,85.74
2018-04-08T01:27:30.252Z,85.70
2018-04-08T01:28:30.245Z,86.03
2018-04-08T01:29:30.236Z,86.08
2018-04-08T01:30:30.225Z,86.08
2018-04-08T01:31:30.214Z,86.65
2018-04-08T01:32:30.200Z,86.60
2018-04-08T01:33:30.192Z,86.27
2018-04-08T01:34:30.176Z,86.46
2018-04-08T01:35:30.167Z,86.08
2018-04-08T01:36:30.157Z,84.79
2018-04-08T01:37:30.153Z,84.12
2018-04-08T01:38:30.135Z,83.03
2018-04-08T01:39:30.124Z,82.89
2018-04-08T01:40:30.363Z,82.98
2018-04-08T01:41:30.103Z,83.51
2018-04-08T01:42:30.091Z,83.36
2018-04-08T01:43:30.083Z,82.93
2018-04-08T01:44:30.077Z,83.41
2018-04-08T01:45:30.066Z,84.22
2018-04-08T01:46:30.308Z,83.89
2018-04-08T01:47:30.041Z,83.98
2018-04-08T01:48:30.032Z,84.65
2018-04-08T01:49:30.021Z,84.79
2018-04-08T01:50:30.006Z,84.31
2018-04-08T01:51:29.997Z,84.65
2018-04-08T01:52:29.994Z,84.12
2018-04-08T01:53:29.972Z,84.79
2018-04-08T01:54:29.964Z,84.12
2018-04-08T01:55:29.952Z,84.22
2018-04-08T01:56:29.941Z,84.41
2018-04-08T01:57:29.936Z,84.27
2018-04-08T01:58:29.925Z,84.65
2018-04-08T01:59:29.915Z,84.94
2018-04-08T02:00:29.900Z,84.84
2018-04-08T02:01:29.893Z,84.94
2018-04-08T02:02:29.878Z,85.13
2018-04-08T02:03:29.865Z,84.84
2018-04-08T02:04:29.859Z,85.13
2018-04-08T02:05:29.843Z,85.70
2018-04-08T02:06:29.831Z,85.51
2018-04-08T02:07:29.820Z,85.51
2018-04-08T02:08:29.809Z,86.18
2018-04-08T02:09:29.804Z,85.99
2018-04-08T02:10:29.790Z,85.89
2018-04-08T02:11:29.777Z,86.18
2018-04-08T02:12:29.765Z,86.36
2018-04-08T02:13:29.755Z,86.55
2018-04-08T02:14:29.743Z,86.55
2018-04-08T02:15:29.735Z,86.36
2018-04-08T02:16:29.730Z,86.46
2018-04-08T02:17:29.712Z,86.46
2018-04-08T02:18:29.708Z,86.55
2018-04-08T02:19:29.755Z,86.75
2018-04-08T02:20:29.679Z,86.84
2018-04-08T02:21:29.666Z,86.55
2018-04-08T02:22:29.655Z,86.55
2018-04-08T02:23:29.644Z,87.23
2018-04-08T02:24:29.635Z,86.75
2018-04-08T02:25:29.623Z,86.84
2018-04-08T02:26:29.618Z,86.36
2018-04-08T02:27:29.600Z,87.03
2018-04-08T02:28:29.596Z,86.65
2018-04-08T02:29:29.578Z,87.70
2018-04-08T02:30:29.567Z,87.13
2018-04-08T02:31:29.563Z,86.94
2018-04-08T02:32:29.545Z,87.41
2018-04-08T02:33:29.532Z,87.70
2018-04-08T02:34:29.522Z,87.41
2018-04-08T02:35:29.519Z,87.51
2018-04-08T02:36:29.554Z,87.60
2018-04-08T02:37:29.489Z,87.70
2018-04-08T02:38:29.480Z,87.65
2018-04-08T02:39:29.470Z,87.56
2018-04-08T02:40:29.456Z,87.75
2018-04-08T02:41:29.443Z,87.65
2018-04-08T02:42:29.434Z,87.56
2018-04-08T02:43:29.424Z,87.65
2018-04-08T02:44:29.415Z,87.75
2018-04-08T02:45:29.399Z,87.94
2018-04-08T02:46:29.397Z,86.99
2018-04-08T02:47:29.383Z,87.18
2018-04-08T02:48:29.372Z,86.90
2018-04-08T02:49:29.354Z,86.61
2018-04-08T02:50:29.345Z,86.22
2018-04-08T02:51:29.340Z,86.13
2018-04-08T02:52:29.329Z,86.04
2018-04-08T02:53:29.310Z,85.37
2018-04-08T02:54:29.300Z,85.75
2018-04-08T02:55:29.291Z,86.04
2018-04-08T02:56:29.276Z,85.56
2018-04-08T02:57:29.265Z,85.94
2018-04-08T02:58:29.254Z,86.04
2018-04-08T02:59:29.243Z,85.85
2018-04-08T03:00:29.236Z,85.08
2018-04-08T03:01:29.219Z,84.99
2018-04-08T03:02:29.208Z,84.23
2018-04-08T03:03:29.201Z,83.56
2018-04-08T03:04:29.189Z,84.04
2018-04-08T03:05:29.179Z,83.56
2018-04-08T03:06:29.167Z,83.47
2018-04-08T03:07:29.159Z,84.70
2018-04-08T03:08:29.141Z,84.42
2018-04-08T03:09:29.135Z,84.80
2018-04-08T03:10:29.118Z,84.70
2018-04-08T03:11:29.113Z,84.89
2018-04-08T03:12:29.094Z,85.18
2018-04-08T03:13:29.083Z,85.66
2018-04-08T03:14:29.072Z,85.56
2018-04-08T03:15:29.064Z,86.04
2018-04-08T03:16:29.054Z,86.99
2018-04-08T03:17:29.039Z,86.90
2018-04-08T03:18:29.034Z,86.90
2018-04-08T03:19:29.014Z,86.51
2018-04-08T03:20:29.001Z,87.65
2018-04-08T03:21:28.993Z,87.18
2018-04-08T03:22:28.980Z,87.27
2018-04-08T03:23:28.975Z,86.70
2018-04-08T03:24:28.962Z,87.27
2018-04-08T03:25:28.954Z,86.99
2018-04-08T03:26:28.940Z,87.75
2018-04-08T03:27:28.924Z,87.46
2018-04-08T03:28:28.917Z,87.56
2018-04-08T03:29:28.899Z,87.27
2018-04-08T03:30:28.889Z,86.99
2018-04-08T03:31:28.886Z,87.08
2018-04-08T03:32:28.892Z,86.99
2018-04-08T03:33:28.855Z,86.90
2018-04-08T03:34:28.843Z,86.32
2018-04-08T03:35:28.829Z,86.51
2018-04-08T03:36:28.818Z,86.42
2018-04-08T03:37:28.812Z,86.22
2018-04-08T03:38:28.795Z,86.51
2018-04-08T03:39:28.785Z,86.42
2018-04-08T03:40:28.779Z,86.61
2018-04-08T03:41:28.760Z,85.75
2018-04-08T03:42:28.748Z,86.04
2018-04-08T03:43:28.736Z,86.13
2018-04-08T03:44:28.726Z,86.32
2018-04-08T03:45:28.721Z,86.51
2018-04-08T03:46:28.710Z,86.51
2018-04-08T03:47:28.692Z,86.80
2018-04-08T03:48:28.683Z,87.46
2018-04-08T03:49:28.674Z,88.04
2018-04-08T03:50:28.661Z,88.04
2018-04-08T03:51:28.648Z,87.94
2018-04-08T03:52:28.638Z,87.85
2018-04-08T03:53:28.624Z,87.56
2018-04-08T03:54:28.623Z,88.23
2018-04-08T03:55:28.602Z,88.51
2018-04-08T03:56:28.593Z,88.60
2018-04-08T03:57:28.573Z,88.60
2018-04-08T03:58:28.571Z,88.37
2018-04-08T03:59:28.557Z,88.89
2018-04-08T04:00:28.541Z,89.18
2018-04-08T04:01:28.529Z,89.56
2018-04-08T04:02:28.525Z,89.75
2018-04-08T04:03:28.511Z,89.56
2018-04-08T04:04:28.492Z,89.75
2018-04-08T04:05:28.483Z,88.89
2018-04-08T04:06:28.468Z,89.08
2018-04-08T04:07:28.457Z,88.23
2018-04-08T04:08:28.452Z,88.37
2018-04-08T04:09:28.439Z,88.13
2018-04-08T04:10:28.423Z,88.37
2018-04-08T04:11:28.412Z,88.46
2018-04-08T04:12:28.403Z,88.94
2018-04-08T04:13:28.386Z,89.32
2018-04-08T04:14:28.382Z,89.42
2018-04-08T04:15:28.370Z,89.89
2018-04-08T04:16:28.350Z,89.70
2018-04-08T04:17:28.342Z,89.23
2018-04-08T04:18:28.328Z,89.70
2018-04-08T04:19:28.325Z,88.94
2018-04-08T04:20:28.311Z,88.28
2018-04-08T04:21:28.293Z,88.37
2018-04-08T04:22:28.283Z,87.23
2018-04-08T04:23:28.269Z,87.42
2018-04-08T04:24:28.258Z,87.80
2018-04-08T04:25:28.246Z,88.28
2018-04-08T04:26:28.234Z,88.56
2018-04-08T04:27:28.222Z,88.18
2018-04-08T04:28:28.211Z,88.28
2018-04-08T04:29:28.199Z,88.28
2018-04-08T04:30:28.194Z,88.66
2018-04-08T04:31:28.180Z,89.70
2018-04-08T04:32:28.169Z,89.99
2018-04-08T04:33:28.154Z,89.89
2018-04-08T04:34:28.142Z,89.61
2018-04-08T04:35:28.128Z,89.80
2018-04-08T04:36:28.115Z,89.99
2018-04-08T04:37:28.106Z,89.80
2018-04-08T04:38:28.100Z,89.80
2018-04-08T04:39:28.086Z,89.51
2018-04-08T04:40:28.074Z,89.23
2018-04-08T04:41:28.056Z,89.89
2018-04-08T04:42:28.052Z,89.61
2018-04-08T04:43:28.036Z,89.61
2018-04-08T04:44:28.021Z,89.23
2018-04-08T04:45:28.013Z,89.04
2018-04-08T04:46:27.998Z,88.56
2018-04-08T04:47:27.984Z,88.56
2018-04-08T04:48:27.979Z,88.56
2018-04-08T04:49:27.967Z,88.94
2018-04-08T04:50:27.952Z,88.75
2018-04-08T04:51:27.937Z,88.94
2018-04-08T04:52:27.929Z,88.66
2018-04-08T04:53:27.920Z,89.42
2018-04-08T04:54:27.902Z,89.42
2018-04-08T04:55:27.890Z,88.85
2018-04-08T04:56:27.879Z,89.42
2018-04-08T04:57:27.865Z,89.32
2018-04-08T04:58:27.853Z,89.99
2018-04-08T04:59:27.842Z,89.42
2018-04-08T05:00:27.828Z,89.61
2018-04-08T05:01:27.817Z,89.42
2018-04-08T05:02:27.805Z,89.32
2018-04-08T05:03:27.793Z,89.51
2018-04-08T05:04:27.781Z,89.32
2018-04-08T05:05:27.770Z,89.70
2018-04-08T05:06:27.763Z,89.70
2018-04-08T05:07:27.746Z,89.04
2018-04-08T05:08:27.740Z,88.94
2018-04-08T05:09:27.721Z,90.03
2018-04-08T05:10:27.708Z,88.75
2018-04-08T05:11:27.698Z,88.32
2018-04-08T05:12:27.692Z,88.42
2018-04-08T05:13:27.683Z,87.94
2018-04-08T05:14:27.664Z,88.13
2018-04-08T05:15:27.656Z,87.65
2018-04-08T05:16:27.645Z,88.13
2018-04-08T05:17:27.635Z,88.32
2018-04-08T05:18:27.616Z,88.51
2018-04-08T05:19:27.609Z,88.13
2018-04-08T05:20:27.591Z,88.04
2018-04-08T05:21:27.577Z,87.85
2018-04-08T05:22:27.569Z,87.85
2018-04-08T05:23:27.562Z,87.56
2018-04-08T05:24:27.547Z,87.46
2018-04-08T05:25:27.537Z,87.56
2018-04-08T05:26:27.523Z,88.04
2018-04-08T05:27:27.510Z,87.46
2018-04-08T05:28:27.496Z,87.46
2018-04-08T05:29:27.484Z,87.75
2018-04-08T05:30:27.475Z,87.56
2018-04-08T05:31:27.463Z,87.65
2018-04-08T05:32:27.454Z,87.65
2018-04-08T05:33:27.438Z,86.90
2018-04-08T05:34:27.427Z,86.13
2018-04-08T05:35:27.421Z,86.61
2018-04-08T05:36:27.408Z,86.70
2018-04-08T05:37:27.398Z,86.70
2018-04-08T05:38:27.380Z,86.22
2018-04-08T05:39:27.369Z,85.99
2018-04-08T05:40:27.357Z,85.51
2018-04-08T05:41:27.346Z,85.41
2018-04-08T05:42:27.334Z,84.94
2018-04-08T05:43:27.323Z,85.51
2018-04-08T05:44:27.323Z,84.65
2018-04-08T05:45:27.311Z,84.75
2018-04-08T05:46:27.292Z,84.46
2018-04-08T05:47:27.278Z,84.75
2018-04-08T05:48:27.266Z,84.65
2018-04-08T05:49:27.262Z,84.17
2018-04-08T05:50:27.247Z,84.50
2018-04-08T05:51:27.239Z,83.26
2018-04-08T05:52:27.221Z,82.98
2018-04-08T05:53:27.217Z,83.17
2018-04-08T05:54:27.202Z,83.36
2018-04-08T05:55:27.189Z,83.55
2018-04-08T05:56:27.177Z,83.07
2018-04-08T05:57:27.166Z,82.79
2018-04-08T05:58:27.163Z,82.60
2018-04-08T05:59:27.147Z,81.49
2018-04-08T06:00:27.134Z,80.83
2018-04-08T06:01:27.131Z,80.35
2018-04-08T06:02:27.116Z,80.35
2018-04-08T06:03:27.102Z,79.88
2018-04-08T06:04:27.090Z,79.49
2018-04-08T06:05:27.082Z,79.78
2018-04-08T06:06:27.071Z,79.59
2018-04-08T06:07:27.061Z,79.59
2018-04-08T06:08:27.052Z,79.40
2018-04-08T06:09:27.040Z,78.92
2018-04-08T06:10:27.034Z,78.64
2018-04-08T06:11:27.020Z,78.25
2018-04-08T06:12:27.009Z,78.58
2018-04-08T06:13:27.004Z,78.30
2018-04-08T06:14:26.997Z,77.72
2018-04-08T06:15:26.982Z,77.72
2018-04-08T06:16:26.969Z,77.72
2018-04-08T06:17:26.956Z,77.25
2018-04-08T06:18:26.947Z,76.67
2018-04-08T06:19:26.936Z,76.29
2018-04-08T06:20:26.926Z,76.86
2018-04-08T06:21:26.915Z,76.86
2018-04-08T06:22:26.907Z,76.77
2018-04-08T06:23:26.897Z,76.20
2018-04-08T06:24:26.887Z,76.52
2018-04-08T06:25:26.881Z,75.76
2018-04-08T06:26:26.867Z,75.18
2018-04-08T06:27:26.858Z,75.09
2018-04-08T06:28:26.847Z,74.99
2018-04-08T06:29:26.843Z,74.52
2018-04-08T06:30:26.827Z,75.09
2018-04-08T06:31:26.829Z,74.32
2018-04-08T06:32:26.808Z,73.47
2018-04-08T06:33:26.798Z,74.13
2018-04-08T06:34:26.801Z,74.23
2018-04-08T06:35:26.788Z,74.13
2018-04-08T06:36:26.775Z,73.47
2018-04-08T06:37:26.760Z,72.93
2018-04-08T06:38:26.751Z,73.12
2018-04-08T06:39:26.742Z,73.79
2018-04-08T06:40:26.733Z,74.46
2018-04-08T06:41:26.775Z,73.12
2018-04-08T06:42:26.712Z,72.26
2018-04-08T06:43:26.727Z,72.36
2018-04-08T06:44:26.695Z,72.17
2018-04-08T06:45:26.686Z,72.26
2018-04-08T06:46:26.690Z,72.17
2018-04-08T06:47:26.670Z,72.20
2018-04-08T06:48:26.661Z,71.34
2018-04-08T06:49:26.686Z,70.87
2018-04-08T06:50:26.652Z,71.06
2018-04-08T06:51:26.644Z,71.53
2018-04-08T06:52:26.691Z,71.67
2018-04-08T06:53:26.620Z,70.90
2018-04-08T06:54:26.622Z,69.76
2018-04-08T06:55:26.597Z,69.47
2018-04-08T06:56:26.587Z,69.37
2018-04-08T06:57:26.584Z,68.80
2018-04-08T06:58:26.587Z,69.56
2018-04-08T06:59:26.571Z,69.66
2018-04-08T07:00:26.554Z,69.85
2018-04-08T07:01:26.550Z,69.27
2018-04-08T07:02:26.537Z,68.99
2018-04-08T07:03:26.529Z,69.27
2018-04-08T07:04:26.530Z,69.70
2018-04-08T07:05:26.511Z,68.74
2018-04-08T07:06:26.505Z,68.26
2018-04-08T07:07:26.501Z,67.49
2018-04-08T07:08:26.484Z,68.45
2018-04-08T07:09:26.479Z,68.26
2018-04-08T07:10:26.471Z,67.69
2018-04-08T07:11:26.466Z,67.11
2018-04-08T07:12:26.451Z,66.83
2018-04-08T07:13:26.448Z,67.11
2018-04-08T07:14:26.435Z,66.35
2018-04-08T07:15:26.431Z,66.00
2018-04-08T07:16:26.422Z,66.06
2018-04-08T07:17:26.412Z,66.44
2018-04-08T07:18:26.478Z,66.09
2018-04-08T07:19:26.396Z,66.73
2018-04-08T07:20:26.389Z,66.09
2018-04-08T07:21:26.386Z,66.28
2018-04-08T07:22:26.376Z,65.61
2018-04-08T07:23:26.372Z,65.90
2018-04-08T07:24:26.356Z,66.19
2018-04-08T07:25:26.348Z,65.23
2018-04-08T07:26:26.344Z,65.14
2018-04-08T07:27:26.336Z,65.23
2018-04-08T07:28:26.326Z,64.95
2018-04-08T07:29:26.320Z,65.23
2018-04-08T07:30:26.311Z,64.95
2018-04-08T07:31:26.304Z,65.23
2018-04-08T07:32:26.297Z,64.88
2018-04-08T07:33:26.288Z,64.79
2018-04-08T07:34:26.281Z,65.08
2018-04-08T07:35:26.274Z,63.83
2018-04-08T07:36:26.266Z,63.93
2018-04-08T07:37:26.258Z,64.02
2018-04-08T07:38:26.251Z,63.73
2018-04-08T07:39:26.247Z,64.02
2018-04-08T07:40:26.237Z,63.93
2018-04-08T07:41:26.242Z,63.93
2018-04-08T07:42:26.234Z,64.05
2018-04-08T07:43:26.216Z,63.64
2018-04-08T07:44:26.209Z,63.57
2018-04-08T07:45:26.206Z,62.81
2018-04-08T07:46:26.194Z,63.10
2018-04-08T07:47:26.192Z,63.19
2018-04-08T07:48:26.185Z,63.19
2018-04-08T07:49:26.172Z,62.62
2018-04-08T07:50:26.171Z,61.79
2018-04-08T07:51:26.164Z,61.50
2018-04-08T07:52:26.168Z,60.83
2018-04-08T07:53:26.149Z,60.73
2018-04-08T07:54:26.140Z,60.64
2018-04-08T07:55:26.133Z,60.54
2018-04-08T07:56:26.124Z,60.35
2018-04-08T07:57:26.119Z,60.35
2018-04-08T07:58:26.111Z,59.77
2018-04-08T07:59:26.109Z,60.73
2018-04-08T08:00:26.098Z,60.83
2018-04-08T08:01:26.096Z,60.54
2018-04-08T08:02:26.084Z,60.25
2018-04-08T08:03:26.079Z,59.97
2018-04-08T08:04:26.070Z,59.30
2018-04-08T08:05:26.119Z,59.04
2018-04-08T08:06:26.063Z,59.13
2018-04-08T08:07:26.053Z,60.00
2018-04-08T08:08:26.047Z,58.37
2018-04-08T08:09:26.039Z,57.31
2018-04-08T08:10:26.032Z,57.31
2018-04-08T08:11:26.035Z,57.24
2018-04-08T08:12:26.021Z,56.19
2018-04-08T08:13:26.014Z,55.62
2018-04-08T08:14:26.009Z,55.23
2018-04-08T08:15:26.002Z,55.55
2018-04-08T08:16:26.001Z,54.78
2018-04-08T08:17:25.990Z,54.56
2018-04-08T08:18:25.985Z,54.68
2018-04-08T08:19:25.979Z,55.45
2018-04-08T08:20:25.979Z,55.35
2018-04-08T08:21:25.965Z,54.21
2018-04-08T08:22:25.960Z,54.04
2018-04-08T08:23:25.960Z,53.94
2018-04-08T08:24:25.950Z,53.46
2018-04-08T08:25:25.945Z,52.98
2018-04-08T08:26:25.935Z,53.17
2018-04-08T08:27:25.930Z,52.22
2018-04-08T08:28:25.922Z,51.83
2018-04-08T08:29:25.922Z,51.57
2018-04-08T08:30:25.911Z,50.51
2018-04-08T08:31:25.906Z,49.84
2018-04-08T08:32:25.898Z,50.13
2018-04-08T08:33:25.894Z,50.51
2018-04-08T08:34:25.889Z,50.51
2018-04-08T08:35:25.889Z,49.93
2018-04-08T08:36:25.875Z,50.25
2018-04-08T08:37:25.869Z,49.96
2018-04-08T08:38:25.873Z,49.87
2018-04-08T08:39:25.857Z,49.67
2018-04-08T08:40:25.851Z,48.81
2018-04-08T08:41:25.847Z,46.98
2018-04-08T08:42:25.843Z,47.27
2018-04-08T08:43:25.842Z,48.81
2018-04-08T08:44:25.828Z,49.77
2018-04-08T08:45:25.824Z,49.57
2018-04-08T08:46:25.820Z,49.10
2018-04-08T08:47:25.815Z,48.64
2018-04-08T08:48:25.808Z,47.36
2018-04-08T08:49:25.803Z,47.30
2018-04-08T08:50:25.798Z,47.30
2018-04-08T08:51:25.800Z,47.10
2018-04-08T08:52:25.789Z,46.04
2018-04-08T08:53:25.782Z,46.36
2018-04-08T08:54:25.775Z,45.95
2018-04-08T08:55:25.776Z,46.55
2018-04-08T08:56:25.771Z,45.20
2018-04-08T08:57:25.759Z,46.04
2018-04-08T08:58:25.774Z,45.87
2018-04-08T08:59:25.750Z,45.39
2018-04-08T09:00:25.772Z,46.06
2018-04-08T09:01:25.738Z,44.34
2018-04-08T09:02:25.739Z,45.87
2018-04-08T09:03:25.753Z,46.45
2018-04-08T09:04:25.729Z,45.49
2018-04-08T09:05:25.718Z,44.82
2018-04-08T09:06:25.721Z,44.62
2018-04-08T09:07:25.707Z,42.50
2018-04-08T09:08:25.703Z,42.33
2018-04-08T09:09:25.719Z,41.76
2018-04-08T09:10:25.693Z,42.05
2018-04-08T09:11:25.688Z,40.99
2018-04-08T09:12:25.689Z,41.74
2018-04-08T09:13:25.681Z,42.41
2018-04-08T09:14:25.679Z,42.82
2018-04-08T09:15:25.669Z,42.63
2018-04-08T09:16:25.665Z,42.82
2018-04-08T09:17:25.688Z,43.30
2018-04-08T09:18:25.655Z,41.95
2018-04-08T09:19:25.676Z,40.51
2018-04-08T09:20:25.643Z,40.12
2018-04-08T09:21:25.641Z,40.31
2018-04-08T09:22:25.639Z,40.03
2018-04-08T09:23:25.629Z,40.51
2018-04-08T09:24:25.625Z,41.38
2018-04-08T09:25:25.619Z,41.76
2018-04-08T09:26:25.614Z,41.39
2018-04-08T09:27:25.613Z,41.39
2018-04-08T09:28:25.608Z,40.81
2018-04-08T09:29:25.635Z,41.39
2018-04-08T09:30:25.595Z,40.72
2018-04-08T09:33:33.118Z,41.11
2018-04-08T09:34:33.050Z,41.11
2018-04-08T09:35:33.041Z,40.53
2018-04-08T09:36:33.047Z,40.05
2018-04-08T09:37:33.040Z,40.80
2018-04-08T09:38:33.032Z,40.24
2018-04-08T09:39:33.039Z,40.53
2018-04-08T09:40:33.026Z,38.60
2018-04-08T09:41:33.024Z,38.70
2018-04-08T09:42:33.018Z,39.66
2018-04-08T09:43:33.018Z,40.64
2018-04-08T09:44:33.014Z,40.26
2018-04-08T09:45:33.013Z,39.97
2018-04-08T09:46:33.009Z,39.01
2018-04-08T09:47:33.005Z,37.66
2018-04-08T09:48:33.003Z,38.62
2018-04-08T09:49:33.003Z,38.14
2018-04-08T09:50:33.000Z,38.72
2018-04-08T09:51:33.003Z,40.07
2018-04-08T09:52:32.994Z,40.07
2018-04-08T09:53:32.993Z,40.57
2018-04-08T09:54:32.989Z,39.79
2018-04-08T09:55:32.988Z,39.70
2018-04-08T09:56:32.988Z,39.03
2018-04-08T09:57:32.992Z,38.93
2018-04-08T09:58:32.983Z,39.12
2018-04-08T09:59:32.982Z,39.41
2018-04-08T10:00:32.980Z,40.76
2018-04-08T10:01:32.978Z,40.88
2018-04-08T10:02:32.974Z,38.83
2018-04-08T10:03:32.981Z,39.22
2018-04-08T10:04:32.980Z,40.09
2018-04-08T10:05:33.051Z,38.83
2018-04-08T10:06:32.973Z,38.16
2018-04-08T10:07:32.968Z,38.83
2018-04-08T10:08:32.973Z,38.64
2018-04-08T10:09:32.965Z,37.21
2018-04-08T10:10:32.964Z,37.21
2018-04-08T10:11:32.968Z,37.21
2018-04-08T10:12:32.964Z,37.50
2018-04-08T10:13:32.965Z,34.90
2018-04-08T10:14:32.960Z,35.21
2018-04-08T10:15:32.955Z,35.00
2018-04-08T10:16:32.957Z,34.82
2018-04-08T10:17:32.994Z,34.61
2018-04-08T10:18:32.953Z,34.72
2018-04-08T10:19:32.955Z,34.34
2018-04-08T10:20:32.956Z,34.53
2018-04-08T10:21:32.950Z,33.86
2018-04-08T10:22:32.948Z,33.76
2018-04-08T10:23:32.947Z,32.51
2018-04-08T10:24:32.955Z,32.70
2018-04-08T10:25:32.950Z,32.41
2018-04-08T10:26:32.942Z,33.76
2018-04-08T10:27:32.941Z,33.48
2018-04-08T10:28:32.948Z,33.10
2018-04-08T10:29:32.948Z,32.04
2018-04-08T10:30:32.947Z,31.75
2018-04-08T10:31:32.940Z,31.27
2018-04-08T10:32:32.947Z,31.75
2018-04-08T10:33:32.938Z,31.46
2018-04-08T10:34:32.937Z,30.40
2018-04-08T10:35:32.945Z,30.79
2018-04-08T17:59:38.042Z,32.26
2018-04-08T18:00:37.969Z,34.19
2018-04-08T18:01:37.971Z,33.42
2018-04-08T18:02:37.966Z,32.73
2018-04-08T18:03:37.958Z,34.19
2018-04-08T18:04:37.962Z,32.92
2018-04-08T18:05:37.983Z,34.27
2018-04-08T18:06:37.950Z,34.66
2018-04-08T18:07:37.951Z,33.50
2018-04-08T18:08:37.943Z,33.50
2018-04-08T18:09:37.941Z,33.12
2018-04-08T18:10:37.934Z,33.29
2018-04-08T18:11:37.931Z,35.22
2018-04-08T18:12:37.961Z,34.83
2018-04-08T18:13:37.926Z,35.50
2018-04-08T18:14:37.920Z,33.77
2018-04-08T18:15:37.927Z,33.87
2018-04-08T18:16:37.916Z,35.12
2018-04-08T18:17:37.919Z,36.54
2018-04-08T18:18:37.913Z,36.76
2018-04-08T18:19:37.910Z,36.93
2018-04-08T18:20:37.908Z,36.64
2018-04-08T18:21:37.902Z,35.49
2018-04-08T18:22:37.904Z,36.74
2018-04-08T18:23:37.907Z,36.16
2018-04-08T18:24:37.895Z,36.93
2018-04-08T18:25:37.892Z,36.83
2018-04-08T18:26:37.899Z,35.87
2018-04-08T18:27:37.888Z,38.28
2018-04-08T18:28:37.888Z,36.07
2018-04-08T18:29:37.891Z,35.58
2018-04-08T18:30:37.887Z,36.54
2018-04-08T18:31:37.879Z,37.79
2018-04-08T18:32:37.884Z,37.49
2018-04-08T18:33:37.876Z,36.82
2018-04-08T18:34:37.877Z,37.30
2018-04-08T18:35:37.868Z,36.91
2018-04-08T18:36:37.866Z,37.10
2018-04-08T18:37:37.870Z,37.01
2018-04-08T18:38:37.862Z,36.62
2018-04-08T18:39:37.871Z,36.82
2018-04-08T18:40:37.858Z,37.39
2018-04-08T18:41:37.853Z,37.18
2018-04-08T18:42:37.852Z,37.49
2018-04-08T18:43:37.856Z,37.66
2018-04-08T18:44:37.849Z,37.47
2018-04-08T18:45:37.846Z,36.90
2018-04-08T18:46:37.840Z,38.14
2018-04-08T18:47:37.839Z,38.24
2018-04-08T18:48:37.842Z,38.43
2018-04-08T18:49:37.836Z,37.37
2018-04-08T18:50:37.831Z,38.24
2018-04-08T18:51:37.835Z,38.04
2018-04-08T18:52:37.827Z,38.14
2018-04-08T18:53:37.822Z,37.95
2018-04-08T18:54:37.825Z,39.01
2018-04-08T18:55:37.821Z,39.49
2018-04-08T18:56:37.882Z,41.31
2018-04-08T18:57:37.810Z,41.02
2018-04-08T18:58:37.815Z,41.70
2018-04-08T18:59:37.805Z,42.37
2018-04-08T19:00:37.804Z,40.55
2018-04-08T19:01:37.805Z,38.99
2018-04-08T19:02:37.858Z,41.10
2018-04-08T19:03:37.793Z,41.77
2018-04-08T19:04:37.790Z,41.29
2018-04-08T19:05:37.795Z,41.67
2018-04-08T19:06:37.784Z,40.23
2018-04-08T19:07:37.784Z,39.28
2018-04-08T19:08:37.779Z,40.52
2018-04-08T19:09:37.782Z,39.85
2018-04-08T19:10:37.771Z,39.83
2018-04-08T19:11:37.769Z,41.17
2018-04-08T19:12:37.766Z,40.23
2018-04-08T19:13:37.763Z,39.76
2018-04-08T19:14:37.760Z,38.20
2018-04-08T19:15:37.758Z,38.39
2018-04-08T19:16:37.758Z,41.75
2018-04-08T19:17:37.750Z,38.68
2018-04-08T19:18:37.754Z,38.49
2018-04-08T19:19:37.746Z,38.78
2018-04-08T19:20:37.744Z,38.68
2018-04-08T19:21:37.739Z,39.16
2018-04-08T19:22:37.736Z,39.81
2018-04-08T19:23:37.739Z,39.93
2018-04-08T19:24:37.728Z,40.58
2018-04-08T19:25:37.727Z,41.16
2018-04-08T19:26:37.723Z,40.67
2018-04-08T19:27:37.719Z,41.63
2018-04-08T19:28:37.727Z,43.07
2018-04-08T19:29:37.713Z,41.83
2018-04-08T19:30:37.713Z,40.29
2018-04-08T19:31:37.708Z,40.00
2018-04-08T19:32:37.705Z,40.87
2018-04-08T19:33:37.699Z,40.00
2018-04-08T19:34:37.696Z,41.25
2018-04-08T19:35:37.694Z,42.02
2018-04-08T19:36:37.691Z,42.11
2018-04-08T19:37:37.684Z,42.40
2018-04-08T19:38:37.685Z,41.93
2018-04-08T19:39:37.677Z,41.71
2018-04-08T19:40:37.673Z,41.44
2018-04-08T19:41:37.671Z,41.13
2018-04-08T19:42:37.671Z,42.77
2018-04-08T19:43:37.664Z,42.29
2018-04-08T19:44:37.661Z,42.57
2018-04-08T19:45:37.663Z,42.29
2018-04-08T19:46:37.654Z,41.61
2018-04-08T19:47:37.649Z,42.47
2018-04-08T19:48:37.647Z,42.77
2018-04-08T19:49:37.642Z,42.86
2018-04-08T19:50:37.638Z,42.67
2018-04-08T19:51:37.644Z,42.00
2018-04-08T19:52:37.632Z,42.19
2018-04-08T19:53:37.626Z,42.38
2018-04-08T19:54:37.624Z,41.80
2018-04-08T19:55:37.619Z,40.83
2018-04-08T19:56:37.616Z,42.46
2018-04-08T19:57:37.620Z,43.90
2018-04-08T19:58:37.623Z,43.80
2018-04-08T19:59:37.611Z,41.02
2018-04-08T20:00:37.603Z,42.27
2018-04-08T20:01:37.596Z,43.23
2018-04-08T20:02:37.591Z,43.90
2018-04-08T20:03:37.618Z,43.99
2018-04-08T20:04:37.585Z,44.85
2018-04-08T20:05:37.578Z,43.90
2018-04-08T20:06:37.576Z,44.95
2018-04-08T20:07:37.571Z,45.23
2018-04-08T20:08:37.570Z,46.29
2018-04-08T20:09:37.563Z,43.80
2018-04-08T20:10:37.560Z,44.76
2018-04-08T20:11:37.561Z,45.31
2018-04-08T20:12:37.552Z,46.00
2018-04-08T20:13:37.547Z,45.31
2018-04-08T20:14:37.543Z,45.12
2018-04-08T20:15:37.542Z,44.93
2018-04-08T20:16:37.542Z,43.97
2018-04-08T20:17:37.535Z,44.45